Time;durP1;ratioP1;P1;durP2;ratioP2;P2;SDS_P1;SDS_P2;PMS_P1;PMS_P2;Temp;Humidity;BMP_temperature;BMP_pressure;BME280_temperature;BME280_humidity;BME280_pressure;Samples;Min_cycle;Max_cycle;Signal;HPM_P1;HPM_P2
2021/04/13 00:00:05;;;;;;;7.45;4.50;;;1.90;99.90;;;;;;5053449;28;20414;-65
2021/04/13 00:02:40;;;;;;;7.95;4.78;;;1.70;99.90;;;;;;5036116;28;20036;-65
2021/04/13 00:05:13;;;;;;;10.02;5.10;;;1.50;99.90;;;;;;5053525;28;20041;-65
2021/04/13 00:07:44;;;;;;;9.82;4.75;;;1.50;99.90;;;;;;5053729;28;20143;-65
2021/04/13 00:10:32;;;;;;;9.55;5.43;;;1.50;99.90;;;;;;5035393;28;20036;-64
2021/04/13 00:12:59;;;;;;;8.45;5.05;;;1.60;99.90;;;;;;5037260;28;20029;-65
2021/04/13 00:15:45;;;;;;;11.15;5.38;;;1.60;99.90;;;;;;5035668;28;20059;-65
2021/04/13 00:18:14;;;;;;;9.82;4.93;;;1.60;99.90;;;;;;5034860;28;20509;-65
2021/04/13 00:20:55;;;;;;;10.45;5.03;;;1.80;99.90;;;;;;5053545;28;20371;-64
2021/04/13 00:23:21;;;;;;;11.27;5.13;;;1.70;99.90;;;;;;5053276;28;20323;-65
2021/04/13 00:25:51;;;;;;;10.95;5.28;;;1.70;99.90;;;;;;5051906;28;20074;-65
2021/04/13 00:28:35;;;;;;;7.00;4.10;;;1.70;99.90;;;;;;5035703;28;20115;-65
2021/04/13 00:31:06;;;;;;;9.55;4.45;;;1.70;99.90;;;;;;5020047;28;20033;-65
2021/04/13 00:33:41;;;;;;;10.75;5.18;;;1.80;99.90;;;;;;5035707;28;20061;-65
2021/04/13 00:36:15;;;;;;;7.40;4.43;;;1.80;99.90;;;;;;5053058;28;20028;-65
2021/04/13 00:38:43;;;;;;;6.75;4.28;;;1.70;99.90;;;;;;5035903;28;20025;-65
2021/04/13 00:41:23;;;;;;;8.07;4.88;;;1.70;99.90;;;;;;5052702;28;20397;-65
2021/04/13 00:44:08;;;;;;;10.90;5.00;;;1.60;99.90;;;;;;5036182;28;20117;-65
2021/04/13 00:46:48;;;;;;;9.57;4.53;;;1.40;99.90;;;;;;5053027;28;20033;-65
2021/04/13 00:49:19;;;;;;;9.25;4.72;;;1.40;99.90;;;;;;5052732;28;20032;-65
2021/04/13 00:51:54;;;;;;;10.48;4.50;;;1.40;99.90;;;;;;5035244;28;20064;-65
2021/04/13 00:54:42;;;;;;;10.73;4.10;;;1.30;99.90;;;;;;5052677;28;20445;-65
2021/04/13 00:57:25;;;;;;;6.57;3.80;;;1.20;99.90;;;;;;5019173;28;20029;-65
2021/04/13 00:59:55;;;;;;;6.65;3.75;;;1.20;99.90;;;;;;5036043;28;20040;-65
2021/04/13 01:02:32;;;;;;;6.80;3.58;;;1.10;99.90;;;;;;5035190;28;20158;-65
2021/04/13 01:05:20;;;;;;;7.30;3.72;;;1.10;99.90;;;;;;5052120;28;20029;-65
2021/04/13 01:07:52;;;;;;;4.65;2.97;;;1.00;99.90;;;;;;5052753;28;20485;-65
2021/04/13 01:10:35;;;;;;;6.07;3.70;;;1.10;99.90;;;;;;5052368;28;20025;-65
2021/04/13 01:13:20;;;;;;;6.72;2.90;;;1.10;99.90;;;;;;5034632;28;20040;-65
2021/04/13 01:15:50;;;;;;;5.90;3.20;;;1.00;99.90;;;;;;5052580;28;20091;-64
2021/04/13 01:18:31;;;;;;;4.82;3.22;;;1.00;99.90;;;;;;5052016;28;20060;-64
2021/04/13 01:21:35;;;;;;;5.95;2.65;;;1.00;99.90;;;;;;5052533;28;20082;-64
2021/04/13 01:24:30;;;;;;;8.38;3.28;;;1.00;99.90;;;;;;5036371;28;20033;-65
2021/04/13 01:26:55;;;;;;;5.22;2.85;;;1.10;99.90;;;;;;5036881;28;20145;-65
2021/04/13 01:29:25;;;;;;;6.35;3.45;;;1.10;99.90;;;;;;5034648;28;20056;-65
2021/04/13 01:31:57;;;;;;;5.70;2.95;;;1.10;99.90;;;;;;5035010;28;20025;-65
2021/04/13 01:34:39;;;;;;;7.45;3.28;;;1.20;99.90;;;;;;5051820;28;20041;-65
2021/04/13 01:37:35;;;;;;;6.30;3.58;;;1.20;99.90;;;;;;5035773;28;20052;-64
2021/04/13 01:40:17;;;;;;;5.72;3.33;;;1.30;99.90;;;;;;5051867;28;20033;-65
2021/04/13 01:42:44;;;;;;;6.13;3.22;;;1.40;99.90;;;;;;5036666;28;20056;-65
2021/04/13 01:45:15;;;;;;;9.93;3.67;;;1.40;99.90;;;;;;5034350;28;20037;-65
2021/04/13 01:47:42;;;;;;;;;;;1.60;99.90;;;;;;5053021;28;20134;-65
2021/04/13 01:50:13;;;;;;;5.10;3.10;;;1.50;99.90;;;;;;5034486;28;20480;-65
2021/04/13 01:52:44;;;;;;;9.60;3.90;;;1.60;99.90;;;;;;5052194;28;20037;-65
2021/04/13 01:55:24;;;;;;;5.45;3.22;;;1.60;99.90;;;;;;5034644;28;20037;-65
2021/04/13 01:58:22;;;;;;;9.80;4.47;;;1.60;99.90;;;;;;5034715;28;20037;-65
2021/04/13 02:00:52;;;;;;;6.32;3.90;;;1.70;99.90;;;;;;5036097;28;20037;-65
2021/04/13 02:03:42;;;;;;;7.07;4.63;;;1.80;99.90;;;;;;5052058;28;20039;-65
2021/04/13 02:06:22;;;;;;;9.05;5.10;;;1.90;99.90;;;;;;5051834;28;20033;-65
2021/04/13 02:09:04;;;;;;;9.48;5.32;;;1.80;99.90;;;;;;5035149;28;20095;-65
2021/04/13 02:11:33;;;;;;;;;;;1.90;99.90;;;;;;5052313;28;20045;-65
2021/04/13 02:14:08;;;;;;;10.15;5.43;;;1.80;99.90;;;;;;5034763;28;19947;-65
2021/04/13 02:16:53;;;;;;;11.00;5.68;;;1.80;99.90;;;;;;5052004;28;20053;-65
2021/04/13 02:19:19;;;;;;;16.98;7.10;;;1.80;99.90;;;;;;5037786;28;20128;-65
2021/04/13 02:22:11;;;;;;;15.10;7.20;;;1.80;99.90;;;;;;5037926;28;20056;-65
2021/04/13 02:24:38;;;;;;;13.20;7.35;;;1.80;99.90;;;;;;5054932;28;20045;-65
2021/04/13 02:27:17;;;;;;;15.85;7.57;;;1.80;99.90;;;;;;5055616;28;20466;-65
2021/04/13 02:29:53;;;;;;;12.60;7.43;;;1.80;99.90;;;;;;5038435;28;20033;-65
2021/04/13 02:32:28;;;;;;;14.70;6.97;;;1.70;99.90;;;;;;5037909;28;20099;-65
2021/04/13 02:35:00;;;;;;;13.95;7.75;;;1.70;99.90;;;;;;5038157;28;20037;-65
2021/04/13 02:37:41;;;;;;;18.15;8.10;;;1.70;99.90;;;;;;5055303;28;20040;-65
2021/04/13 02:40:16;;;;;;;16.95;6.78;;;1.70;99.90;;;;;;5055000;28;20415;-65
2021/04/13 02:42:52;;;;;;;14.18;8.15;;;1.70;99.90;;;;;;5038025;28;20033;-64
2021/04/13 02:45:41;;;;;;;11.35;7.00;;;1.70;99.90;;;;;;5037857;28;20052;-64
2021/04/13 02:48:15;;;;;;;11.20;6.82;;;1.60;99.90;;;;;;5038433;28;20065;-65
2021/04/13 02:50:49;;;;;;;13.57;7.57;;;1.50;99.90;;;;;;5055240;28;20025;-64
2021/04/13 02:53:21;;;;;;;14.57;8.18;;;1.50;99.90;;;;;;5055108;28;20057;-64
2021/04/13 02:55:56;;;;;;;14.32;7.78;;;1.50;99.90;;;;;;5037802;28;20025;-65
2021/04/13 02:58:35;;;;;;;15.07;7.78;;;1.50;99.90;;;;;;5037212;28;20111;-64
2021/04/13 03:01:01;;;;;;;16.70;8.73;;;1.40;99.90;;;;;;5054976;28;20052;-64
2021/04/13 03:03:43;;;;;;;15.20;8.23;;;1.40;99.90;;;;;;5037066;28;20029;-65
2021/04/13 03:06:09;;;;;;;16.75;8.93;;;1.40;99.90;;;;;;5037434;28;20037;-64
2021/04/13 03:08:41;;;;;;;14.85;8.55;;;1.40;99.90;;;;;;5036584;28;20452;-64
2021/04/13 03:11:25;;;;;;;15.10;8.75;;;1.40;99.90;;;;;;5054788;28;20144;-65
2021/04/13 03:13:54;;;;;;;15.40;8.80;;;1.50;99.90;;;;;;5037355;28;20033;-64
2021/04/13 03:16:35;;;;;;;14.88;9.20;;;1.60;99.90;;;;;;5036948;28;20040;-64
2021/04/13 03:19:04;;;;;;;13.65;8.88;;;1.60;99.90;;;;;;5037373;28;20457;-63
2021/04/13 03:21:35;;;;;;;16.75;9.55;;;1.40;99.90;;;;;;5037092;28;20037;-64
2021/04/13 03:24:07;;;;;;;17.38;9.57;;;1.30;99.90;;;;;;5054628;28;20033;-65
2021/04/13 03:26:39;;;;;;;23.15;9.02;;;1.30;99.90;;;;;;5054365;28;20470;-64
2021/04/13 03:29:19;;;;;;;19.13;9.88;;;1.30;99.90;;;;;;5036266;28;20381;-64
2021/04/13 03:31:46;;;;;;;15.52;8.88;;;1.20;99.90;;;;;;5037364;28;20033;-65
2021/04/13 03:34:12;;;;;;;17.05;9.20;;;1.30;99.90;;;;;;5019758;28;20053;-65
2021/04/13 03:36:39;;;;;;;20.23;9.80;;;1.30;99.90;;;;;;5054162;28;20037;-65
2021/04/13 03:39:24;;;;;;;18.45;10.13;;;1.20;99.90;;;;;;5036566;28;20116;-65
2021/04/13 03:41:50;;;;;;;18.52;10.05;;;1.20;99.90;;;;;;5037306;28;20438;-65
2021/04/13 03:44:18;;;;;;;15.90;8.73;;;1.10;99.90;;;;;;5036375;28;20048;-65
2021/04/13 03:46:46;;;;;;;18.75;8.43;;;1.10;99.90;;;;;;5054127;28;20030;-65
2021/04/13 03:49:39;;;;;;;14.77;8.82;;;1.10;99.90;;;;;;5036359;28;20029;-65
2021/04/13 03:52:19;;;;;;;17.50;7.88;;;1.10;99.90;;;;;;5000606;28;20091;-64
2021/04/13 03:54:45;;;;;;;18.02;9.02;;;1.10;99.90;;;;;;5053625;28;20060;-65
2021/04/13 03:57:10;;;;;;;18.58;9.20;;;1.10;99.90;;;;;;5052999;28;20068;-67
2021/04/13 03:59:44;;;;;;;13.25;8.57;;;1.10;99.90;;;;;;5035257;28;20489;-67
2021/04/13 04:02:11;;;;;;;21.10;9.85;;;1.00;99.90;;;;;;5052476;28;20159;-67
2021/04/13 04:04:42;;;;;;;15.18;8.30;;;1.10;99.90;;;;;;5034839;28;20474;-67
2021/04/13 04:07:37;;;;;;;14.65;8.25;;;1.10;99.90;;;;;;5033916;28;20100;-67
2021/04/13 04:10:34;;;;;;;14.98;8.30;;;0.80;99.90;;;;;;5015770;28;20041;-70
2021/04/13 04:13:15;;;;;;;16.00;9.07;;;0.60;99.90;;;;;;5011631;28;20041;-67
2021/04/13 04:15:50;;;;;;;13.50;7.70;;;0.60;99.90;;;;;;5032490;28;20033;-67
2021/04/13 04:18:26;;;;;;;13.73;8.60;;;0.50;99.90;;;;;;5031890;28;20391;-67
2021/04/13 04:20:52;;;;;;;15.02;9.20;;;0.50;99.90;;;;;;5032340;28;20040;-67
2021/04/13 04:23:30;;;;;;;17.35;9.48;;;0.50;99.90;;;;;;5032947;28;20041;-67
2021/04/13 04:26:00;;;;;;;21.95;11.05;;;0.60;99.90;;;;;;5032364;28;20025;-67
2021/04/13 04:28:38;;;;;;;19.30;9.95;;;0.60;99.90;;;;;;5051701;28;20478;-65
2021/04/13 04:31:35;;;;;;;22.13;10.20;;;0.70;99.90;;;;;;5053154;28;20445;-65
2021/04/13 04:34:21;;;;;;;23.17;11.10;;;0.70;99.90;;;;;;5052914;28;20486;-65
2021/04/13 04:36:55;;;;;;;24.05;11.52;;;0.80;99.90;;;;;;5021572;28;20439;-63
2021/04/13 04:39:38;;;;;;;20.20;10.95;;;0.80;99.90;;;;;;5051142;28;20386;-64
2021/04/13 04:42:29;;;;;;;21.23;11.45;;;0.70;99.90;;;;;;5051807;28;20087;-64
2021/04/13 04:45:34;;;;;;;23.27;11.73;;;0.80;99.90;;;;;;5045281;28;20040;-64
2021/04/13 04:48:28;;;;;;;22.05;11.90;;;0.80;99.90;;;;;;5052966;28;20124;-63
2021/04/13 04:51:08;;;;;;;20.27;10.88;;;0.80;99.90;;;;;;5052510;28;20662;-63
2021/04/13 04:53:37;;;;;;;20.88;11.25;;;0.80;99.90;;;;;;5052675;28;20033;-64
2021/04/13 04:56:06;;;;;;;29.30;12.70;;;0.80;99.90;;;;;;5052622;28;20037;-66
2021/04/13 04:58:33;;;;;;;24.85;12.85;;;0.80;99.90;;;;;;5058840;28;20043;-63
2021/04/13 05:01:00;;;;;;;23.42;11.98;;;0.80;99.90;;;;;;5072724;28;20389;-64
2021/04/13 05:03:27;;;;;;;25.70;12.00;;;0.80;99.90;;;;;;5072033;28;20358;-64
2021/04/13 05:05:54;;;;;;;25.25;12.63;;;0.80;99.90;;;;;;5072260;28;20385;-64
2021/04/13 05:08:22;;;;;;;23.67;11.75;;;0.70;99.90;;;;;;5072378;28;20303;-64
2021/04/13 05:10:50;;;;;;;27.58;11.82;;;0.70;99.90;;;;;;5072283;28;20039;-64
2021/04/13 05:13:20;;;;;;;22.92;12.27;;;0.70;99.90;;;;;;5051521;28;20040;-64
2021/04/13 05:15:47;;;;;;;22.25;11.32;;;0.70;99.90;;;;;;5052146;28;20025;-63
2021/04/13 05:18:13;;;;;;;20.98;11.18;;;0.70;99.90;;;;;;5052018;28;20060;-64
2021/04/13 05:20:39;;;;;;;21.88;11.60;;;0.70;99.90;;;;;;5067218;28;20436;-63
2021/04/13 05:23:08;;;;;;;21.58;11.25;;;0.80;99.90;;;;;;5052226;28;20074;-64
2021/04/13 05:25:33;;;;;;;21.90;10.85;;;0.80;99.90;;;;;;5051979;28;20033;-64
2021/04/13 05:28:00;;;;;;;22.95;10.57;;;0.80;99.90;;;;;;5052116;28;20363;-64
2021/04/13 05:30:26;;;;;;;20.67;10.90;;;0.80;99.90;;;;;;5051951;28;20040;-64
2021/04/13 05:32:53;;;;;;;22.42;10.85;;;1.00;99.90;;;;;;5052088;28;20067;-64
2021/04/13 05:35:22;;;;;;;26.08;11.77;;;0.90;99.90;;;;;;5052065;28;20108;-63
2021/04/13 05:37:48;;;;;;;23.67;11.73;;;0.90;99.90;;;;;;5051998;28;20423;-64
2021/04/13 05:40:25;;;;;;;24.60;12.63;;;1.00;99.90;;;;;;5034237;28;20037;-64
2021/04/13 05:42:55;;;;;;;20.17;11.00;;;1.00;99.90;;;;;;5034378;28;20032;-64
2021/04/13 05:45:22;;;;;;;20.48;11.48;;;1.00;99.90;;;;;;5033852;28;20032;-64
2021/04/13 05:47:48;;;;;;;23.92;12.10;;;1.00;99.90;;;;;;5034181;28;20033;-64
2021/04/13 05:50:25;;;;;;;20.33;11.57;;;1.10;99.90;;;;;;5051704;28;20052;-64
2021/04/13 05:52:51;;;;;;;18.33;9.93;;;1.10;99.90;;;;;;5038037;28;20055;-65
2021/04/13 05:55:17;;;;;;;22.08;11.70;;;1.20;99.90;;;;;;5055905;28;20056;-65
2021/04/13 05:57:46;;;;;;;25.00;11.82;;;1.20;99.90;;;;;;5055817;28;20040;-66
2021/04/13 06:00:13;;;;;;;22.08;11.35;;;1.20;99.90;;;;;;5046446;28;20028;-65
2021/04/13 06:02:42;;;;;;;25.45;11.70;;;1.20;99.90;;;;;;5055635;28;20120;-65
2021/04/13 06:05:11;;;;;;;22.13;10.80;;;1.30;99.90;;;;;;5034553;28;20236;-64
2021/04/13 06:07:37;;;;;;;21.77;12.45;;;1.30;99.90;;;;;;5050728;28;20124;-64
2021/04/13 06:10:04;;;;;;;32.50;13.32;;;1.30;99.90;;;;;;5054748;28;20103;-64
2021/04/13 06:12:30;;;;;;;23.33;12.20;;;1.30;99.90;;;;;;5030582;28;20034;-64
2021/04/13 06:14:56;;;;;;;24.38;12.20;;;1.40;99.90;;;;;;5035556;28;20625;-63
2021/04/13 06:17:22;;;;;;;27.33;13.00;;;1.30;99.90;;;;;;5034189;28;20029;-64
2021/04/13 06:19:48;;;;;;;24.95;12.80;;;1.40;99.90;;;;;;5034724;28;20446;-65
2021/04/13 06:22:13;;;;;;;28.98;13.60;;;1.50;99.90;;;;;;5035614;28;20026;-64
2021/04/13 06:24:40;;;;;;;26.10;12.65;;;1.60;99.90;;;;;;5035383;28;20041;-65
2021/04/13 06:27:08;;;;;;;25.45;12.40;;;1.70;99.90;;;;;;5035162;28;20112;-64
2021/04/13 06:29:35;;;;;;;24.67;13.30;;;1.80;99.90;;;;;;5050077;28;20025;-65
2021/04/13 06:32:02;;;;;;;25.55;13.18;;;1.90;99.90;;;;;;5055429;28;20029;-65
2021/04/13 06:34:28;;;;;;;23.27;12.88;;;2.00;99.90;;;;;;5055063;28;20160;-65
2021/04/13 06:36:56;;;;;;;25.85;12.88;;;2.10;99.90;;;;;;5055345;28;20120;-64
2021/04/13 06:39:22;;;;;;;28.33;14.80;;;2.10;99.90;;;;;;5055064;28;20025;-64
2021/04/13 06:42:27;;;;;;;24.50;13.38;;;2.20;99.90;;;;;;5037258;28;20036;-64
2021/04/13 06:45:12;;;;;;;23.38;12.90;;;2.20;99.90;;;;;;5039505;28;20033;-64
2021/04/13 06:48:18;;;;;;;24.75;12.38;;;2.40;99.90;;;;;;5038143;28;20029;-65
2021/04/13 06:51:32;;;;;;;25.38;12.20;;;2.40;99.90;;;;;;5039148;28;20528;-64
2021/04/13 06:54:19;;;;;;;27.85;13.38;;;2.50;99.90;;;;;;5049279;28;20045;-64
2021/04/13 06:56:58;;;;;;;28.58;13.48;;;2.70;99.90;;;;;;5054961;28;20068;-64
2021/04/13 07:00:05;;;;;;;24.33;13.50;;;2.70;99.90;;;;;;5054682;28;20037;-65
2021/04/13 07:02:49;;;;;;;24.13;13.20;;;2.80;99.90;;;;;;5054055;28;20029;-64
2021/04/13 07:05:25;;;;;;;24.20;14.23;;;2.90;99.90;;;;;;5054395;28;20037;-64
2021/04/13 07:08:31;;;;;;;25.58;14.32;;;2.90;99.90;;;;;;5053144;28;20029;-64
2021/04/13 07:11:20;;;;;;;27.90;13.52;;;3.00;99.90;;;;;;5054644;28;20040;-64
2021/04/13 07:13:58;;;;;;;24.05;11.98;;;3.20;99.90;;;;;;5053106;28;20364;-64
2021/04/13 07:17:07;;;;;;;23.15;12.48;;;3.30;99.90;;;;;;5054313;28;20481;-64
2021/04/13 07:19:56;;;;;;;26.73;12.40;;;3.30;99.90;;;;;;5053814;28;20057;-64
2021/04/13 07:22:38;;;;;;;27.30;12.63;;;3.40;99.90;;;;;;5053571;28;20041;-64
2021/04/13 07:25:27;;;;;;;24.50;13.57;;;3.60;99.90;;;;;;5053186;28;20025;-63
2021/04/13 07:28:01;;;;;;;25.05;12.82;;;3.70;99.90;;;;;;5052910;28;20040;-65
2021/04/13 07:30:48;;;;;;;23.25;12.27;;;3.90;99.90;;;;;;5037109;28;20032;-64
2021/04/13 07:33:23;;;;;;;21.15;11.35;;;3.90;99.90;;;;;;5053052;28;20057;-63
2021/04/13 07:35:54;;;;;;;20.00;12.10;;;4.00;99.90;;;;;;5053745;28;20465;-64
2021/04/13 07:38:26;;;;;;;24.33;12.00;;;4.20;99.90;;;;;;5054181;28;20442;-63
2021/04/13 07:41:07;;;;;;;22.80;12.50;;;4.20;99.90;;;;;;5036467;28;20433;-64
2021/04/13 07:43:46;;;;;;;22.25;11.25;;;4.30;99.90;;;;;;5053859;28;20070;-63
2021/04/13 07:47:09;;;;;;;22.40;11.50;;;4.50;99.90;;;;;;5045165;28;20063;-64
2021/04/13 07:49:47;;;;;;;25.30;13.18;;;4.70;99.90;;;;;;5010746;28;20396;-64
2021/04/13 07:52:52;;;;;;;20.80;11.15;;;4.80;99.90;;;;;;5053806;28;20025;-63
2021/04/13 07:55:49;;;;;;;21.83;11.32;;;4.80;99.90;;;;;;5053680;28;20041;-64
2021/04/13 07:58:36;;;;;;;20.42;11.57;;;4.90;99.90;;;;;;5028913;28;20057;-65
2021/04/13 08:01:07;;;;;;;25.48;12.70;;;4.90;99.90;;;;;;5051471;28;20044;-65
2021/04/13 08:03:34;;;;;;;27.58;13.13;;;5.00;99.90;;;;;;5049695;28;20025;-65
2021/04/13 08:06:23;;;;;;;22.23;11.63;;;5.00;99.90;;;;;;5053466;28;20033;-65
2021/04/13 08:08:50;;;;;;;21.98;11.52;;;5.10;99.90;;;;;;5041188;28;20037;-65
2021/04/13 08:11:21;;;;;;;22.52;12.10;;;5.20;99.90;;;;;;5052239;28;20096;-65
2021/04/13 08:13:53;;;;;;;21.33;9.73;;;5.40;99.90;;;;;;5053315;28;20041;-65
2021/04/13 08:16:38;;;;;;;20.58;10.70;;;5.60;99.90;;;;;;5051791;28;20120;-63
2021/04/13 08:19:32;;;;;;;20.55;11.05;;;5.70;99.90;;;;;;5052279;28;20060;-65
2021/04/13 08:22:13;;;;;;;19.85;10.63;;;5.80;99.90;;;;;;5053203;28;20102;-64
2021/04/13 08:24:50;;;;;;;25.90;10.93;;;6.00;99.90;;;;;;5052812;28;20098;-65
2021/04/13 08:27:18;;;;;;;27.05;10.20;;;5.80;99.90;;;;;;5053189;28;20120;-65
2021/04/13 08:30:03;;;;;;;17.77;9.73;;;6.00;99.90;;;;;;5044594;28;20033;-65
2021/04/13 08:33:01;;;;;;;17.23;10.02;;;6.00;99.90;;;;;;5053171;28;20056;-65
2021/04/13 08:35:59;;;;;;;43.42;10.70;;;6.10;99.90;;;;;;5052975;28;20059;-65
2021/04/13 08:39:11;;;;;;;16.70;8.82;;;6.20;99.90;;;;;;5034879;28;20382;-65
2021/04/13 08:42:04;;;;;;;19.65;10.18;;;6.30;99.90;;;;;;5052838;28;20454;-65
2021/04/13 08:45:02;;;;;;;17.58;9.77;;;6.50;99.90;;;;;;5051564;28;20496;-65
2021/04/13 08:47:51;;;;;;;16.90;10.35;;;6.80;99.90;;;;;;5027101;28;20049;-65
2021/04/13 08:50:42;;;;;;;15.38;8.48;;;7.10;99.90;;;;;;5051518;28;20037;-65
2021/04/13 08:53:38;;;;;;;17.85;9.68;;;7.30;99.90;;;;;;5052574;28;20060;-64
2021/04/13 08:56:23;;;;;;;18.50;9.48;;;7.30;99.90;;;;;;5052638;28;20039;-64
2021/04/13 08:58:58;;;;;;;16.98;9.32;;;7.30;99.90;;;;;;5042974;28;20159;-65
2021/04/13 09:01:44;;;;;;;15.63;8.10;;;7.20;99.90;;;;;;5052352;28;20040;-65
2021/04/13 09:04:30;;;;;;;13.40;7.97;;;7.10;99.90;;;;;;5034385;28;20025;-64
2021/04/13 09:07:23;;;;;;;18.08;7.90;;;7.20;99.10;;;;;;5052487;28;20032;-64
2021/04/13 09:09:55;;;;;;;13.75;7.18;;;7.20;98.70;;;;;;5051291;28;20413;-64
2021/04/13 09:12:34;;;;;;;12.82;5.90;;;7.00;97.30;;;;;;5052363;28;20025;-64
2021/04/13 09:15:08;;;;;;;10.07;6.07;;;7.20;97.30;;;;;;5052268;28;20106;-64
2021/04/13 09:17:56;;;;;;;14.30;6.13;;;7.10;96.70;;;;;;5052373;28;20159;-64
2021/04/13 09:20:37;;;;;;;13.73;5.80;;;7.20;96.40;;;;;;5051134;28;20486;-64
2021/04/13 09:23:48;;;;;;;14.13;5.65;;;7.40;96.50;;;;;;5051262;28;20056;-64
2021/04/13 09:26:56;;;;;;;14.02;7.07;;;7.70;95.40;;;;;;5050718;28;20421;-64
2021/04/13 09:29:40;;;;;;;11.60;5.45;;;7.70;92.20;;;;;;5044101;28;20080;-64
2021/04/13 09:32:26;;;;;;;10.48;4.75;;;7.70;93.70;;;;;;5034312;28;20043;-65
2021/04/13 09:35:21;;;;;;;11.95;5.85;;;8.00;92.10;;;;;;5051542;28;20379;-64
2021/04/13 09:38:18;;;;;;;9.52;5.15;;;8.20;91.10;;;;;;5050679;28;20045;-64
2021/04/13 09:41:25;;;;;;;9.68;5.57;;;8.20;91.00;;;;;;5003637;28;20037;-64
2021/04/13 09:44:23;;;;;;;12.18;5.00;;;8.20;90.60;;;;;;5050823;28;20037;-64
2021/04/13 09:46:50;;;;;;;9.73;5.43;;;8.00;89.70;;;;;;5051906;28;20074;-65
2021/04/13 09:49:39;;;;;;;10.75;5.70;;;7.90;90.20;;;;;;5034431;28;20033;-66
2021/04/13 09:53:06;;;;;;;12.32;6.18;;;8.00;90.90;;;;;;5052106;28;20025;-64
2021/04/13 09:56:08;;;;;;;7.53;4.80;;;8.20;90.90;;;;;;5052049;28;20033;-64
2021/04/13 09:58:52;;;;;;;11.98;5.07;;;8.60;89.10;;;;;;5030264;28;20406;-64
2021/04/13 10:01:35;;;;;;;10.75;6.72;;;9.20;86.50;;;;;;5051924;28;20132;-64
2021/04/13 10:04:40;;;;;;;7.88;4.85;;;9.60;82.90;;;;;;5034117;28;20029;-64
2021/04/13 10:07:28;;;;;;;9.40;5.55;;;9.70;77.80;;;;;;5020001;28;20025;-65
2021/04/13 10:09:58;;;;;;;9.73;4.90;;;8.90;78.40;;;;;;5051740;28;20025;-65
2021/04/13 10:13:02;;;;;;;7.30;4.00;;;9.00;77.80;;;;;;5051953;28;20052;-67
2021/04/13 10:15:52;;;;;;;6.53;3.72;;;9.40;70.20;;;;;;5051728;28;20045;-66
2021/04/13 10:18:55;;;;;;;8.35;4.32;;;9.20;66.20;;;;;;5050271;28;20447;-66
2021/04/13 10:22:07;;;;;;;8.25;4.35;;;8.90;68.90;;;;;;5051780;28;20082;-67
2021/04/13 10:25:29;;;;;;;9.15;4.40;;;8.90;69.50;;;;;;5051764;28;20029;-69
2021/04/13 10:28:09;;;;;;;;;;;9.20;71.50;;;;;;5050476;28;20033;-68
2021/04/13 10:31:14;;;;;;;15.63;4.97;;;9.50;70.70;;;;;;5035179;28;19912;-64
2021/04/13 10:34:20;;;;;;;7.13;3.88;;;9.30;68.60;;;;;;5051370;28;20044;-66
2021/04/13 10:37:46;;;;;;;7.38;3.83;;;9.00;69.80;;;;;;5033767;28;20450;-67
2021/04/13 10:40:36;;;;;;;9.00;3.95;;;9.40;69.60;;;;;;5048903;28;20048;-66
2021/04/13 10:43:42;;;;;;;8.75;4.47;;;9.70;68.70;;;;;;5054974;28;20378;-67
2021/04/13 10:46:43;;;;;;;6.53;4.18;;;9.50;67.20;;;;;;5053667;28;20421;-67
2021/04/13 10:49:33;;;;;;;8.02;4.32;;;9.50;69.60;;;;;;5055006;28;20037;-67
2021/04/13 10:52:18;;;;;;;6.50;3.40;;;9.90;69.10;;;;;;5054873;28;20094;-67
2021/04/13 10:55:20;;;;;;;6.07;3.35;;;10.20;66.60;;;;;;5054858;28;20493;-66
2021/04/13 10:58:25;;;;;;;7.40;3.38;;;10.40;65.70;;;;;;5054729;28;20439;-67
2021/04/13 11:01:35;;;;;;;10.40;3.72;;;10.70;64.40;;;;;;5039606;28;20033;-68
2021/04/13 11:04:42;;;;;;;5.13;2.78;;;10.20;65.30;;;;;;5054492;28;20091;-67
2021/04/13 11:07:55;;;;;;;5.68;2.85;;;10.50;62.30;;;;;;5053679;28;20029;-66
2021/04/13 11:10:47;;;;;;;6.68;3.38;;;10.50;62.40;;;;;;5054689;28;20056;-66
2021/04/13 11:13:52;;;;;;;5.88;3.53;;;10.90;62.50;;;;;;5054593;28;20028;-67
2021/04/13 11:17:09;;;;;;;7.78;2.92;;;11.20;62.40;;;;;;5054233;28;20494;-67
2021/04/13 11:20:18;;;;;;;6.13;2.88;;;11.70;62.50;;;;;;5053977;28;20056;-67
2021/04/13 11:23:19;;;;;;;10.20;3.33;;;11.10;61.50;;;;;;5053948;28;20041;-68
2021/04/13 11:26:30;;;;;;;7.00;2.33;;;10.90;59.90;;;;;;5052963;28;20106;-68
2021/04/13 11:29:36;;;;;;;4.95;2.10;;;11.00;60.60;;;;;;5053936;28;20041;-67
2021/04/13 11:33:09;;;;;;;4.93;2.90;;;10.90;59.50;;;;;;5060486;28;20024;-66
2021/04/13 11:35:38;;;;;;;3.90;2.60;;;11.20;60.40;;;;;;5073842;28;20614;-66
2021/04/13 11:38:31;;;;;;;5.88;2.22;;;11.90;59.60;;;;;;5067399;28;20027;-66
2021/04/13 11:41:30;;;;;;;5.03;2.50;;;11.10;56.70;;;;;;5070133;28;20414;-66
2021/04/13 11:44:36;;;;;;;4.90;2.30;;;11.30;57.50;;;;;;5070525;28;20036;-67
2021/04/13 11:47:34;;;;;;;6.57;2.30;;;11.70;59.90;;;;;;5051310;28;20044;-67
2021/04/13 11:50:45;;;;;;;7.10;2.50;;;11.00;62.10;;;;;;5057465;28;20024;-66
2021/04/13 11:53:38;;;;;;;7.05;2.80;;;10.90;63.40;;;;;;5058812;28;20094;-68
2021/04/13 11:56:34;;;;;;;5.68;2.20;;;10.50;65.00;;;;;;5073460;28;20039;-67
2021/04/13 11:59:16;;;;;;;4.05;1.83;;;10.40;65.20;;;;;;5063047;28;20033;-66
2021/04/13 12:01:56;;;;;;;4.85;2.97;;;10.70;61.80;;;;;;5035901;28;20494;-66
2021/04/13 12:04:40;;;;;;;4.53;2.10;;;10.50;60.50;;;;;;5053081;28;20090;-67
2021/04/13 12:07:09;;;;;;;3.90;2.20;;;11.40;62.90;;;;;;5052092;28;20021;-67
2021/04/13 12:09:57;;;;;;;5.25;1.90;;;11.90;60.90;;;;;;5053556;28;20061;-68
2021/04/13 12:12:35;;;;;;;4.85;2.03;;;12.30;56.90;;;;;;5052619;28;20112;-68
2021/04/13 12:15:06;;;;;;;5.88;2.10;;;12.00;53.90;;;;;;5053381;28;20087;-67
2021/04/13 12:17:45;;;;;;;6.25;2.00;;;11.60;55.20;;;;;;5053549;28;20040;-67
2021/04/13 12:20:30;;;;;;;3.22;1.58;;;12.10;54.80;;;;;;5052681;28;20056;-68
2021/04/13 12:23:05;;;;;;;6.03;2.05;;;12.70;53.70;;;;;;5053159;28;20095;-67
2021/04/13 12:25:51;;;;;;;3.67;1.88;;;12.60;52.90;;;;;;5052800;28;20041;-67
2021/04/13 12:28:29;;;;;;;8.80;1.60;;;13.00;52.10;;;;;;5036707;28;20072;-67
2021/04/13 12:31:22;;;;;;;3.85;1.63;;;12.60;53.40;;;;;;5052930;28;20390;-68
2021/04/13 12:34:06;;;;;;;4.38;1.52;;;11.50;55.50;;;;;;5036371;28;20071;-68
2021/04/13 12:36:53;;;;;;;5.07;1.70;;;10.90;59.50;;;;;;5053253;28;20486;-68
2021/04/13 12:39:54;;;;;;;4.70;1.90;;;10.90;58.20;;;;;;5035128;28;20029;-68
2021/04/13 12:42:43;;;;;;;8.23;2.05;;;10.80;59.50;;;;;;5051587;28;20025;-67
2021/04/13 12:45:18;;;;;;;4.10;1.50;;;10.90;58.90;;;;;;5051052;28;20452;-67
2021/04/13 12:48:34;;;;;;;4.85;2.20;;;10.90;58.60;;;;;;5051583;28;20029;-69
2021/04/13 12:51:00;;;;;;;2.67;1.65;;;11.20;58.90;;;;;;5038679;28;20041;-66
2021/04/13 12:53:26;;;;;;;3.55;2.30;;;12.20;55.40;;;;;;5052238;28;20091;-69
2021/04/13 12:56:12;;;;;;;4.25;2.00;;;13.10;53.60;;;;;;5052324;28;20021;-67
2021/04/13 12:58:43;;;;;;;3.75;1.65;;;13.90;52.60;;;;;;5052693;28;20029;-67
2021/04/13 13:01:20;;;;;;;2.85;1.50;;;15.40;49.20;;;;;;5022875;28;20030;-68
2021/04/13 13:03:46;;;;;;;7.88;1.60;;;15.20;48.90;;;;;;5048495;28;20034;-68
2021/04/13 13:06:29;;;;;;;3.97;1.52;;;14.30;49.50;;;;;;5052059;28;20025;-67
2021/04/13 13:09:06;;;;;;;7.90;2.65;;;14.00;50.20;;;;;;5052415;28;20021;-68
2021/04/13 13:11:32;;;;;;;9.07;2.15;;;14.10;52.00;;;;;;5018720;28;20037;-68
2021/04/13 13:14:03;;;;;;;4.63;1.65;;;13.00;54.10;;;;;;5051842;28;20497;-68
2021/04/13 13:16:29;;;;;;;2.85;1.40;;;12.10;55.80;;;;;;5034613;28;20094;-68
2021/04/13 13:18:58;;;;;;;3.40;1.52;;;11.60;57.10;;;;;;5051820;28;20041;-65
2021/04/13 13:21:47;;;;;;;5.47;1.70;;;11.10;58.10;;;;;;5018217;28;20524;-68
2021/04/13 13:24:34;;;;;;;4.30;1.77;;;11.00;57.60;;;;;;5036865;28;20086;-67
2021/04/13 13:27:31;;;;;;;4.80;2.30;;;10.80;59.20;;;;;;5035372;28;20029;-68
2021/04/13 13:30:02;;;;;;;3.88;2.03;;;11.30;59.00;;;;;;5051835;28;20025;-66
2021/04/13 13:32:30;;;;;;;3.88;1.30;;;11.50;57.70;;;;;;5050786;28;20029;-67
2021/04/13 13:35:02;;;;;;;3.55;1.50;;;11.50;56.50;;;;;;5051795;28;20037;-68
2021/04/13 13:37:36;;;;;;;5.18;2.33;;;12.20;57.20;;;;;;5051777;28;20028;-68
2021/04/13 13:40:12;;;;;;;3.10;1.30;;;12.50;54.30;;;;;;5050513;28;20040;-67
2021/04/13 13:42:39;;;;;;;5.22;1.42;;;13.40;52.50;;;;;;5050851;28;20047;-68
2021/04/13 13:45:20;;;;;;;3.53;1.48;;;13.60;49.20;;;;;;5034041;28;20482;-68
2021/04/13 13:47:46;;;;;;;3.70;1.40;;;14.70;50.60;;;;;;5050717;28;20029;-68
2021/04/13 13:50:15;;;;;;;5.05;1.42;;;15.10;49.70;;;;;;5051385;28;20041;-67
2021/04/13 13:52:52;;;;;;;2.42;1.10;;;15.30;49.20;;;;;;5051658;28;20029;-68
2021/04/13 13:55:17;;;;;;;5.57;1.15;;;15.50;47.20;;;;;;5051317;28;20500;-67
2021/04/13 13:58:18;;;;;;;4.75;1.23;;;15.70;46.70;;;;;;5051963;28;20033;-67